createdAt,value
2022-10-30T00:00:11.578Z,20.86
2022-10-30T00:05:37.586Z,20.15
2022-10-30T00:10:41.383Z,18.97
2022-10-30T00:16:05.621Z,18.33
2022-10-30T00:21:14.364Z,17.82
2022-10-30T00:26:21.619Z,17.43
2022-10-30T00:31:24.840Z,17.09
2022-10-30T00:36:27.770Z,17.93
2022-10-30T00:41:30.687Z,20.62
2022-10-30T00:46:37.792Z,20.44
2022-10-30T00:51:48.115Z,19.06
2022-10-30T00:56:51.907Z,18.25
2022-10-30T01:01:54.859Z,17.65
2022-10-30T01:07:00.401Z,17.20
2022-10-30T01:12:03.953Z,18.00
2022-10-30T01:17:21.859Z,20.64
2022-10-30T01:23:03.176Z,20.41
2022-10-30T01:28:30.631Z,18.90
2022-10-30T01:33:58.128Z,18.09
2022-10-30T01:39:26.469Z,17.52
2022-10-30T01:44:33.623Z,17.09
2022-10-30T01:50:04.252Z,17.88
2022-10-30T01:55:16.252Z,20.50
2022-10-30T02:00:20.572Z,19.43
2022-10-30T02:05:35.635Z,18.30
2022-10-30T02:10:39.184Z,17.66
2022-10-30T02:15:43.904Z,17.21
2022-10-30T02:20:47.181Z,17.93
2022-10-30T02:25:50.170Z,20.52
2022-10-30T02:30:53.279Z,19.93
2022-10-30T02:35:56.137Z,18.60
2022-10-30T02:40:59.088Z,17.86
2022-10-30T02:46:02.301Z,17.31
2022-10-30T02:51:05.717Z,16.86
2022-10-30T02:56:12.061Z,17.71
2022-10-30T03:01:18.946Z,20.38
2022-10-30T03:06:22.218Z,20.01
2022-10-30T03:11:27.129Z,18.56
2022-10-30T03:16:30.986Z,17.69
2022-10-30T03:21:34.050Z,17.09
2022-10-30T03:26:36.876Z,16.64
2022-10-30T03:31:41.861Z,17.49
2022-10-30T03:37:05.907Z,20.24
2022-10-30T03:42:09.033Z,19.51
2022-10-30T03:52:21.667Z,17.51
2022-10-30T03:57:25.258Z,16.97
2022-10-30T04:02:54.039Z,16.53
2022-10-30T04:07:59.798Z,17.37
2022-10-30T04:13:06.174Z,20.08
2022-10-30T04:18:14.201Z,19.72
2022-10-30T04:23:19.557Z,18.36
2022-10-30T04:28:22.585Z,17.60
2022-10-30T04:33:25.574Z,17.05
2022-10-30T04:38:28.542Z,16.61
2022-10-30T04:43:32.080Z,17.38
2022-10-30T04:48:36.323Z,19.92
2022-10-30T04:53:39.295Z,19.07
2022-10-30T04:58:43.311Z,17.84
2022-10-30T05:03:48.155Z,17.13
2022-10-30T05:08:54.932Z,16.63
2022-10-30T05:14:18.304Z,16.21
2022-10-30T05:19:22.111Z,17.06
2022-10-30T05:24:28.828Z,19.81
2022-10-30T05:29:31.752Z,19.76
2022-10-30T05:34:34.825Z,18.27
2022-10-30T05:39:38.808Z,17.40
2022-10-30T05:45:00.348Z,16.78
2022-10-30T05:50:05.496Z,16.28
2022-10-30T05:55:08.831Z,17.09
2022-10-30T06:00:26.889Z,19.84
2022-10-30T06:05:31.594Z,19.25
2022-10-30T06:10:36.903Z,17.83
2022-10-30T06:15:49.619Z,17.00
2022-10-30T06:20:55.594Z,16.44
2022-10-30T06:26:01.810Z,17.19
2022-10-30T06:31:14.529Z,19.90
2022-10-30T06:36:17.670Z,19.24
2022-10-30T06:41:24.623Z,17.76
2022-10-30T06:47:05.524Z,16.83
2022-10-30T06:52:10.152Z,16.32
2022-10-30T06:57:14.575Z,17.09
2022-10-30T07:02:35.880Z,19.87
2022-10-30T07:07:43.376Z,19.03
2022-10-30T07:12:54.069Z,17.77
2022-10-30T07:18:18.344Z,17.02
2022-10-30T07:23:23.043Z,16.52
2022-10-30T07:28:27.456Z,17.37
2022-10-30T07:33:48.780Z,20.19
2022-10-30T07:39:14.559Z,19.59
2022-10-30T07:44:31.206Z,18.34
2022-10-30T07:49:52.696Z,17.68
2022-10-30T07:54:55.593Z,17.25
2022-10-30T08:00:22.641Z,16.83
2022-10-30T08:05:31.452Z,17.81
2022-10-30T08:10:43.655Z,20.51
2022-10-30T08:15:46.639Z,19.67
2022-10-30T08:20:50.754Z,18.59
2022-10-30T08:26:00.377Z,17.98
2022-10-30T08:31:06.011Z,17.58
2022-10-30T08:36:35.399Z,18.68
2022-10-30T08:41:38.780Z,20.60
2022-10-30T08:46:41.825Z,19.49
2022-10-30T08:51:46.126Z,18.77
2022-10-30T08:56:49.382Z,18.35
2022-10-30T09:01:52.643Z,18.08
2022-10-30T09:06:55.726Z,17.91
2022-10-30T09:12:18.788Z,19.18
2022-10-30T09:17:22.683Z,21.16
2022-10-30T09:22:28.043Z,20.10
2022-10-30T09:27:31.167Z,19.41
2022-10-30T09:32:38.022Z,19.00
2022-10-30T09:37:45.009Z,18.72
2022-10-30T09:42:52.910Z,18.56
2022-10-30T09:48:22.976Z,18.48
2022-10-30T09:53:54.328Z,18.47
2022-10-30T09:59:26.289Z,19.92
2022-10-30T10:04:42.968Z,21.86
2022-10-30T10:09:52.590Z,20.84
2022-10-30T10:15:57.980Z,20.25
2022-10-30T10:21:09.371Z,19.90
2022-10-30T10:26:25.080Z,19.75
2022-10-30T10:31:47.744Z,19.67
2022-10-30T10:36:53.930Z,19.66
2022-10-30T10:42:18.296Z,19.64
2022-10-30T10:47:39.194Z,19.64
2022-10-30T10:52:50.600Z,19.67
2022-10-30T10:57:58.398Z,19.72
2022-10-30T11:03:12.197Z,19.81
2022-10-30T11:08:18.145Z,19.90
2022-10-30T11:13:23.575Z,20.00
2022-10-30T11:18:26.476Z,20.07
2022-10-30T11:23:44.254Z,20.09
2022-10-30T11:28:49.915Z,20.12
2022-10-30T11:33:53.129Z,20.18
2022-10-30T11:39:09.237Z,20.28
2022-10-30T11:44:12.486Z,20.34
2022-10-30T11:49:50.703Z,20.45
2022-10-30T11:54:58.732Z,20.60
2022-10-30T12:00:05.903Z,20.76
2022-10-30T12:05:35.757Z,20.90
2022-10-30T12:10:53.031Z,21.03
2022-10-30T12:16:18.360Z,21.13
2022-10-30T12:21:21.689Z,21.20
2022-10-30T12:26:26.078Z,21.22
2022-10-30T12:31:50.246Z,21.23
2022-10-30T12:37:24.268Z,21.29
2022-10-30T12:42:28.899Z,21.38
2022-10-30T12:47:42.113Z,21.40
2022-10-30T12:53:07.803Z,21.44
2022-10-30T12:58:29.533Z,21.48
2022-10-30T13:03:40.470Z,21.50
2022-10-30T13:09:05.122Z,21.48
2022-10-30T13:14:16.628Z,21.53
2022-10-30T13:19:19.747Z,21.65
2022-10-30T13:24:47.372Z,21.76
2022-10-30T13:29:53.915Z,21.82
2022-10-30T13:35:23.981Z,21.82
2022-10-30T13:40:42.111Z,21.81
2022-10-30T13:46:07.873Z,21.76
2022-10-30T13:51:11.017Z,21.73
2022-10-30T13:56:17.791Z,21.71
2022-10-30T14:02:01.665Z,21.71
2022-10-30T14:07:35.196Z,21.73
2022-10-30T14:12:54.601Z,21.72
2022-10-30T14:18:25.673Z,21.72
2022-10-30T14:23:38.515Z,21.71
2022-10-30T14:28:47.568Z,21.70
2022-10-30T14:33:55.010Z,21.67
2022-10-30T14:39:12.089Z,21.66
2022-10-30T14:44:20.951Z,21.62
2022-10-30T14:49:35.815Z,21.55
2022-10-30T14:54:46.264Z,21.52
2022-10-30T14:59:49.124Z,21.47
2022-10-30T15:05:05.407Z,21.40
2022-10-30T15:10:25.069Z,21.33
2022-10-30T15:15:27.950Z,21.28
2022-10-30T15:20:34.134Z,21.23
2022-10-30T15:25:47.184Z,21.20
2022-10-30T15:31:08.377Z,21.11
2022-10-30T15:36:40.449Z,20.98
2022-10-30T15:41:54.169Z,20.84
2022-10-30T15:47:01.040Z,20.72
2022-10-30T15:52:22.064Z,20.58
2022-10-30T16:03:16.343Z,20.27
2022-10-30T16:08:24.043Z,20.15
2022-10-30T16:13:31.266Z,20.04
2022-10-30T16:18:36.082Z,19.90
2022-10-30T16:23:41.907Z,19.77
2022-10-30T16:28:47.972Z,19.64
2022-10-30T16:33:51.131Z,19.50
2022-10-30T16:38:54.893Z,19.36
2022-10-30T16:44:12.846Z,19.22
2022-10-30T16:49:19.432Z,20.32
2022-10-30T16:54:27.691Z,23.04
2022-10-30T16:59:48.241Z,22.69
2022-10-30T17:04:57.954Z,21.49
2022-10-30T17:10:01.407Z,20.85
2022-10-30T17:15:13.547Z,20.37
2022-10-30T17:20:19.303Z,19.94
2022-10-30T17:25:35.289Z,19.57
2022-10-30T17:30:43.614Z,19.23
2022-10-30T17:35:46.609Z,18.96
2022-10-30T17:40:49.812Z,18.72
2022-10-30T17:45:52.774Z,19.68
2022-10-30T17:50:56.049Z,22.41
2022-10-30T17:56:03.835Z,22.24
2022-10-30T18:01:07.792Z,20.94
2022-10-30T18:06:20.135Z,20.22
2022-10-30T18:11:24.939Z,19.65
2022-10-30T18:16:28.209Z,19.19
2022-10-30T18:21:31.421Z,18.79
2022-10-30T18:26:39.308Z,19.55
2022-10-30T18:31:43.671Z,22.16
2022-10-30T18:36:46.772Z,21.69
2022-10-30T18:41:49.867Z,20.41
2022-10-30T18:46:52.716Z,19.65
2022-10-30T18:51:55.708Z,19.09
2022-10-30T18:56:58.528Z,18.62
2022-10-30T19:02:01.641Z,18.23
2022-10-30T19:07:05.725Z,17.90
2022-10-30T19:12:10.713Z,18.84
2022-10-30T19:17:13.781Z,21.56
2022-10-30T19:22:16.719Z,21.67
2022-10-30T19:27:21.184Z,20.24
2022-10-30T19:32:24.218Z,19.40
2022-10-30T19:37:27.095Z,18.81
2022-10-30T19:42:29.952Z,18.30
2022-10-30T19:47:32.882Z,17.88
2022-10-30T19:52:36.203Z,17.52
2022-10-30T19:57:39.321Z,18.40
2022-10-30T20:02:42.864Z,21.10
2022-10-30T20:08:02.974Z,20.96
2022-10-30T20:13:07.273Z,19.51
2022-10-30T20:18:19.049Z,18.73
2022-10-30T20:23:23.243Z,18.14
2022-10-30T20:28:29.891Z,17.66
2022-10-30T20:33:33.565Z,17.25
2022-10-30T20:38:36.525Z,17.99
2022-10-30T20:43:41.094Z,20.67
2022-10-30T20:48:44.220Z,20.29
2022-10-30T20:53:47.080Z,18.98
2022-10-30T20:58:49.974Z,18.22
2022-10-30T21:03:55.361Z,17.65
2022-10-30T21:09:00.569Z,17.17
2022-10-30T21:14:06.531Z,16.77
2022-10-30T21:19:09.333Z,17.51
2022-10-30T21:24:12.320Z,20.17
2022-10-30T21:29:15.360Z,20.07
2022-10-30T21:34:18.743Z,18.69
2022-10-30T21:39:21.608Z,17.91
2022-10-30T21:44:24.406Z,17.45
2022-10-30T21:49:27.239Z,17.04
2022-10-30T21:54:30.131Z,16.67
2022-10-30T21:59:33.425Z,17.47
2022-10-30T22:04:36.338Z,20.12
2022-10-30T22:09:39.189Z,19.77
2022-10-30T22:14:42.134Z,18.44
2022-10-30T22:19:44.955Z,17.68
2022-10-30T22:24:47.763Z,17.13
2022-10-30T22:29:50.611Z,16.67
2022-10-30T22:34:53.674Z,16.27
2022-10-30T22:39:56.506Z,17.05
2022-10-30T22:44:59.315Z,19.77
2022-10-30T22:50:02.419Z,19.62
2022-10-30T22:55:05.793Z,18.24
2022-10-30T23:00:09.476Z,17.44
2022-10-30T23:05:14.592Z,16.88
2022-10-30T23:10:18.649Z,16.43
2022-10-30T23:15:21.598Z,16.02
2022-10-30T23:20:24.409Z,16.84
2022-10-30T23:25:27.210Z,19.54
2022-10-30T23:30:30.086Z,19.34
2022-10-30T23:35:33.078Z,17.95
2022-10-30T23:40:35.968Z,17.14
2022-10-30T23:45:39.827Z,16.56
2022-10-30T23:50:42.889Z,16.08
2022-10-30T23:55:55.303Z,15.66
